createdAt,value
2023-03-23T15:59:58.894Z,46.67
2023-03-23T16:03:04.632Z,46.60
2023-03-23T16:06:10.463Z,46.65
2023-03-23T16:09:15.393Z,46.62
2023-03-23T16:12:18.453Z,46.74
2023-03-23T16:15:21.586Z,46.85
2023-03-23T16:18:24.726Z,46.71
2023-03-23T16:21:27.828Z,46.85
2023-03-23T16:24:30.860Z,46.71
2023-03-23T16:27:33.953Z,46.82
2023-03-23T16:30:37.148Z,46.85
2023-03-23T16:33:40.473Z,46.97
2023-03-23T16:36:43.541Z,46.98
2023-03-23T16:39:46.613Z,46.99
2023-03-23T16:42:50.686Z,47.03
2023-03-23T16:45:56.167Z,47.10
2023-03-23T16:48:59.306Z,47.15
2023-03-23T16:52:02.567Z,47.27
2023-03-23T16:55:18.778Z,47.42
2023-03-23T16:58:21.847Z,47.35
2023-03-23T17:01:30.837Z,47.51
2023-03-23T17:04:47.090Z,47.52
2023-03-23T17:07:50.621Z,47.67
2023-03-23T17:10:56.945Z,47.71
2023-03-23T17:14:03.161Z,47.80
2023-03-23T17:17:10.261Z,47.84
2023-03-23T17:20:16.984Z,47.96
2023-03-23T17:23:21.631Z,47.96
2023-03-23T17:26:24.700Z,47.99
2023-03-23T17:29:28.693Z,48.08
2023-03-23T17:32:31.786Z,48.20
2023-03-23T17:35:36.061Z,48.15
2023-03-23T17:38:39.245Z,48.48
2023-03-23T17:41:42.268Z,48.39
2023-03-23T17:44:47.923Z,48.54
2023-03-23T17:47:53.555Z,48.43
2023-03-23T17:51:00.056Z,48.36
2023-03-23T17:54:03.455Z,48.47
2023-03-23T17:57:06.960Z,48.37
2023-03-23T18:00:10.294Z,48.46
2023-03-23T18:03:13.388Z,48.39
2023-03-23T18:06:16.534Z,48.49
2023-03-23T18:09:19.916Z,48.61
2023-03-23T18:12:23.025Z,48.69
2023-03-23T18:15:28.218Z,48.90
2023-03-23T18:18:32.362Z,48.89
2023-03-23T18:21:35.421Z,49.03
2023-03-23T18:24:38.606Z,49.00
2023-03-23T18:27:41.830Z,49.00
2023-03-23T18:30:49.187Z,49.04
2023-03-23T18:33:54.050Z,49.25
2023-03-23T18:36:57.067Z,49.20
2023-03-23T18:40:00.395Z,49.24
2023-03-23T18:43:03.630Z,49.37
2023-03-23T18:46:08.945Z,49.42
2023-03-23T18:49:12.088Z,49.65
2023-03-23T18:52:15.157Z,49.60
2023-03-23T18:55:20.096Z,49.63
2023-03-23T18:58:24.488Z,49.56
2023-03-23T19:01:27.616Z,49.71
2023-03-23T19:04:33.927Z,49.72
2023-03-23T19:07:38.288Z,49.78
2023-03-23T19:10:42.633Z,49.75
2023-03-23T19:13:58.130Z,49.82
2023-03-23T19:17:04.297Z,49.75
2023-03-23T19:20:14.541Z,49.83
2023-03-23T19:23:23.046Z,49.67
2023-03-23T19:26:31.136Z,49.71
2023-03-23T19:29:35.351Z,49.62
2023-03-23T19:32:38.360Z,49.81
2023-03-23T19:35:49.046Z,49.79
2023-03-23T19:38:54.373Z,49.87
2023-03-23T19:41:57.421Z,49.90
2023-03-23T19:45:01.546Z,49.91
2023-03-23T19:48:04.666Z,50.02
2023-03-23T19:51:08.034Z,49.90
2023-03-23T19:54:13.206Z,49.91
2023-03-23T19:57:16.740Z,49.99
2023-03-23T20:00:19.841Z,49.99
2023-03-23T20:03:23.181Z,50.11
2023-03-23T20:06:28.721Z,50.32
2023-03-23T20:09:33.094Z,50.25
2023-03-23T20:12:36.724Z,50.36
2023-03-23T20:15:39.746Z,50.48
2023-03-23T20:18:43.144Z,50.52
2023-03-23T20:21:46.275Z,50.52
2023-03-23T20:24:49.484Z,50.43
2023-03-23T20:27:55.057Z,50.58
2023-03-23T20:31:19.048Z,50.61
2023-03-23T20:34:31.680Z,50.69
2023-03-23T20:37:38.063Z,50.80
2023-03-23T20:40:40.981Z,50.86
2023-03-23T20:43:44.230Z,50.68
2023-03-23T20:46:48.410Z,50.90
2023-03-23T20:49:52.668Z,50.86
2023-03-23T20:52:56.889Z,50.86
2023-03-23T20:56:02.051Z,50.95
2023-03-23T20:59:05.764Z,50.89
2023-03-23T21:02:12.567Z,50.86
2023-03-23T21:05:15.604Z,50.94
2023-03-23T21:08:19.089Z,50.93
2023-03-23T21:11:24.694Z,50.98
2023-03-23T21:14:27.686Z,50.93
2023-03-23T21:17:30.783Z,50.93
2023-03-23T21:20:34.942Z,50.99
2023-03-23T21:23:38.943Z,51.00
2023-03-23T21:26:42.104Z,50.89
2023-03-23T21:29:45.028Z,50.91
2023-03-23T21:32:48.320Z,50.96
2023-03-23T21:35:51.253Z,51.05
2023-03-23T21:38:55.084Z,50.99
2023-03-23T21:41:59.585Z,50.92
2023-03-23T21:45:02.775Z,51.01
2023-03-23T21:48:06.443Z,50.89
2023-03-23T21:51:11.530Z,50.85
2023-03-23T21:54:14.940Z,50.75
2023-03-23T21:57:17.980Z,50.79
2023-03-23T22:00:21.070Z,50.72
2023-03-23T22:03:25.011Z,50.74
2023-03-23T22:06:28.583Z,50.64
2023-03-23T22:09:31.697Z,50.79
2023-03-23T22:12:35.645Z,50.68
2023-03-23T22:15:38.666Z,50.78
2023-03-23T22:18:43.454Z,50.75
2023-03-23T22:21:46.926Z,50.68
2023-03-23T22:24:50.039Z,50.71
2023-03-23T22:27:53.116Z,50.80
2023-03-23T22:31:00.459Z,50.66
2023-03-23T22:34:03.575Z,50.63
2023-03-23T22:37:06.631Z,50.72
2023-03-23T22:40:11.502Z,50.68
2023-03-23T22:43:14.528Z,50.62
2023-03-23T22:46:17.607Z,50.77
2023-03-23T22:49:20.807Z,50.70
2023-03-23T22:52:23.764Z,50.65
2023-03-23T22:55:27.174Z,50.76
2023-03-23T22:58:30.513Z,50.75
2023-03-23T23:01:34.185Z,50.61
2023-03-23T23:04:37.239Z,50.80
2023-03-23T23:07:40.625Z,50.59
2023-03-23T23:10:44.741Z,50.69
2023-03-23T23:13:48.326Z,50.75
2023-03-23T23:16:51.857Z,50.67
2023-03-23T23:19:55.005Z,50.70
2023-03-23T23:22:58.056Z,50.53
2023-03-23T23:26:01.502Z,50.75
2023-03-23T23:29:04.808Z,50.74
2023-03-23T23:32:08.284Z,50.69
2023-03-23T23:35:12.773Z,50.82
2023-03-23T23:38:16.697Z,50.65
2023-03-23T23:41:19.810Z,50.77
2023-03-23T23:44:22.877Z,50.77
2023-03-23T23:47:26.028Z,50.81
2023-03-23T23:50:29.375Z,50.83
2023-03-23T23:53:32.451Z,50.72
2023-03-23T23:56:36.195Z,50.95
2023-03-23T23:59:39.399Z,50.94
